sensor_id;sensor_type;location;lat;lon;timestamp;pressure;altitude;pressure_sealevel;temperature;humidity
71504;BME280;59323;50.874;7.028;2023-03-14T00:00:05;98896.81;;;10.16;83.95
71504;BME280;59323;50.874;7.028;2023-03-14T00:02:31;98892.56;;;10.15;83.46
71504;BME280;59323;50.874;7.028;2023-03-14T00:04:56;98896.41;;;10.17;83.27
71504;BME280;59323;50.874;7.028;2023-03-14T00:07:22;98887.09;;;10.18;83.34
71504;BME280;59323;50.874;7.028;2023-03-14T00:09:50;98892.00;;;10.31;82.72
71504;BME280;59323;50.874;7.028;2023-03-14T00:12:15;98911.00;;;10.31;82.81
71504;BME280;59323;50.874;7.028;2023-03-14T00:14:41;98925.69;;;10.37;82.78
71504;BME280;59323;50.874;7.028;2023-03-14T00:17:07;98939.63;;;10.39;82.51
71504;BME280;59323;50.874;7.028;2023-03-14T00:19:33;98948.97;;;10.34;82.55
71504;BME280;59323;50.874;7.028;2023-03-14T00:21:58;98934.69;;;10.30;82.61
71504;BME280;59323;50.874;7.028;2023-03-14T00:24:23;98942.09;;;10.26;82.88
71504;BME280;59323;50.874;7.028;2023-03-14T00:26:49;98935.91;;;10.26;83.48
71504;BME280;59323;50.874;7.028;2023-03-14T00:29:14;98945.94;;;10.29;83.29
71504;BME280;59323;50.874;7.028;2023-03-14T00:31:39;98942.41;;;10.32;82.99
71504;BME280;59323;50.874;7.028;2023-03-14T00:34:05;98942.38;;;10.35;83.07
71504;BME280;59323;50.874;7.028;2023-03-14T00:36:31;98943.50;;;10.38;82.41
71504;BME280;59323;50.874;7.028;2023-03-14T00:38:56;98934.53;;;10.44;82.28
71504;BME280;59323;50.874;7.028;2023-03-14T00:41:22;98938.34;;;10.51;81.92
71504;BME280;59323;50.874;7.028;2023-03-14T00:43:49;98939.81;;;10.55;81.38
71504;BME280;59323;50.874;7.028;2023-03-14T00:46:15;98937.44;;;10.61;81.43
71504;BME280;59323;50.874;7.028;2023-03-14T00:48:40;98914.16;;;10.60;81.15
71504;BME280;59323;50.874;7.028;2023-03-14T00:51:07;98920.31;;;10.64;81.65
71504;BME280;59323;50.874;7.028;2023-03-14T00:53:37;98914.06;;;10.67;80.76
71504;BME280;59323;50.874;7.028;2023-03-14T00:56:05;98924.53;;;10.68;80.87
71504;BME280;59323;50.874;7.028;2023-03-14T00:58:30;98933.38;;;10.72;80.98
71504;BME280;59323;50.874;7.028;2023-03-14T01:00:56;98927.19;;;10.72;81.03
71504;BME280;59323;50.874;7.028;2023-03-14T01:03:21;98933.06;;;10.67;81.24
71504;BME280;59323;50.874;7.028;2023-03-14T01:05:46;98919.81;;;10.72;81.04
71504;BME280;59323;50.874;7.028;2023-03-14T01:08:12;98928.72;;;10.73;81.48
71504;BME280;59323;50.874;7.028;2023-03-14T01:10:39;98929.91;;;10.72;81.68
71504;BME280;59323;50.874;7.028;2023-03-14T01:13:05;98926.72;;;10.77;81.01
71504;BME280;59323;50.874;7.028;2023-03-14T01:15:32;98934.06;;;10.80;80.86
71504;BME280;59323;50.874;7.028;2023-03-14T01:17:58;98936.00;;;10.79;80.90
71504;BME280;59323;50.874;7.028;2023-03-14T01:20:23;98931.69;;;10.82;80.84
71504;BME280;59323;50.874;7.028;2023-03-14T01:22:48;98939.38;;;10.87;81.96
71504;BME280;59323;50.874;7.028;2023-03-14T01:25:16;98951.50;;;10.83;82.49
71504;BME280;59323;50.874;7.028;2023-03-14T01:27:41;98943.75;;;10.81;83.65
71504;BME280;59323;50.874;7.028;2023-03-14T01:30:07;98941.19;;;10.70;86.57
71504;BME280;59323;50.874;7.028;2023-03-14T01:32:33;98944.72;;;10.67;87.93
71504;BME280;59323;50.874;7.028;2023-03-14T01:34:59;98948.28;;;10.61;89.59
71504;BME280;59323;50.874;7.028;2023-03-14T01:37:24;98956.22;;;10.48;90.68
71504;BME280;59323;50.874;7.028;2023-03-14T01:39:49;98964.03;;;10.42;91.86
71504;BME280;59323;50.874;7.028;2023-03-14T01:42:15;98951.75;;;10.31;91.24
71504;BME280;59323;50.874;7.028;2023-03-14T01:45:02;98959.59;;;10.22;91.38
71504;BME280;59323;50.874;7.028;2023-03-14T01:47:28;98949.56;;;10.15;92.09
71504;BME280;59323;50.874;7.028;2023-03-14T01:50:08;98934.97;;;10.02;93.43
71504;BME280;59323;50.874;7.028;2023-03-14T01:52:38;98938.19;;;9.93;93.75
71504;BME280;59323;50.874;7.028;2023-03-14T01:55:12;98942.50;;;9.87;95.24
71504;BME280;59323;50.874;7.028;2023-03-14T01:57:41;98933.69;;;9.76;95.05
71504;BME280;59323;50.874;7.028;2023-03-14T02:00:12;98917.47;;;9.69;95.65
71504;BME280;59323;50.874;7.028;2023-03-14T02:03:06;98919.84;;;9.63;96.60
71504;BME280;59323;50.874;7.028;2023-03-14T02:05:38;98917.56;;;9.58;97.17
71504;BME280;59323;50.874;7.028;2023-03-14T02:08:08;98911.41;;;9.54;97.67
71504;BME280;59323;50.874;7.028;2023-03-14T02:10:44;98911.81;;;9.52;97.19
71504;BME280;59323;50.874;7.028;2023-03-14T02:13:11;98916.13;;;9.46;97.16
71504;BME280;59323;50.874;7.028;2023-03-14T02:15:37;98915.41;;;9.42;97.97
71504;BME280;59323;50.874;7.028;2023-03-14T02:18:03;98908.50;;;9.34;98.02
71504;BME280;59323;50.874;7.028;2023-03-14T02:23:09;98905.09;;;9.23;98.34
71504;BME280;59323;50.874;7.028;2023-03-14T02:28:03;98905.16;;;9.16;99.02
71504;BME280;59323;50.874;7.028;2023-03-14T02:30:30;98905.59;;;9.11;98.62
71504;BME280;59323;50.874;7.028;2023-03-14T02:33:17;98907.13;;;9.08;98.79
71504;BME280;59323;50.874;7.028;2023-03-14T02:35:56;98891.28;;;9.07;99.05
71504;BME280;59323;50.874;7.028;2023-03-14T02:38:47;98878.13;;;9.05;98.35
71504;BME280;59323;50.874;7.028;2023-03-14T02:41:15;98876.63;;;9.01;97.99
71504;BME280;59323;50.874;7.028;2023-03-14T02:43:41;98865.44;;;8.95;98.21
71504;BME280;59323;50.874;7.028;2023-03-14T02:46:09;98873.97;;;8.94;98.42
71504;BME280;59323;50.874;7.028;2023-03-14T02:48:45;98869.72;;;8.93;98.01
71504;BME280;59323;50.874;7.028;2023-03-14T02:51:12;98862.78;;;8.88;97.46
71504;BME280;59323;50.874;7.028;2023-03-14T02:53:38;98858.16;;;8.85;98.27
71504;BME280;59323;50.874;7.028;2023-03-14T02:56:07;98853.94;;;8.80;98.03
71504;BME280;59323;50.874;7.028;2023-03-14T02:58:32;98859.38;;;8.77;97.50
71504;BME280;59323;50.874;7.028;2023-03-14T03:00:58;98850.91;;;8.71;97.44
71504;BME280;59323;50.874;7.028;2023-03-14T03:03:23;98848.63;;;8.66;98.26
71504;BME280;59323;50.874;7.028;2023-03-14T03:05:54;98850.56;;;8.66;98.40
71504;BME280;59323;50.874;7.028;2023-03-14T03:08:21;98859.88;;;8.61;98.80
71504;BME280;59323;50.874;7.028;2023-03-14T03:10:47;98844.44;;;8.58;98.90
71504;BME280;59323;50.874;7.028;2023-03-14T03:13:12;98851.78;;;8.57;98.68
71504;BME280;59323;50.874;7.028;2023-03-14T03:15:38;98849.47;;;8.56;98.88
71504;BME280;59323;50.874;7.028;2023-03-14T03:18:03;98841.38;;;8.52;99.21
71504;BME280;59323;50.874;7.028;2023-03-14T03:20:29;98839.44;;;8.53;99.66
71504;BME280;59323;50.874;7.028;2023-03-14T03:22:54;98827.84;;;8.49;99.71
71504;BME280;59323;50.874;7.028;2023-03-14T03:25:20;98834.81;;;8.50;99.80
71504;BME280;59323;50.874;7.028;2023-03-14T03:27:45;98833.25;;;8.52;99.71
71504;BME280;59323;50.874;7.028;2023-03-14T03:30:11;98833.28;;;8.49;99.99
71504;BME280;59323;50.874;7.028;2023-03-14T03:32:36;98837.09;;;8.55;99.23
71504;BME280;59323;50.874;7.028;2023-03-14T03:35:05;98830.53;;;8.56;99.75
71504;BME280;59323;50.874;7.028;2023-03-14T03:37:31;98833.22;;;8.56;99.14
71504;BME280;59323;50.874;7.028;2023-03-14T03:39:57;98826.97;;;8.66;98.45
71504;BME280;59323;50.874;7.028;2023-03-14T03:42:22;98825.38;;;8.72;97.85
71504;BME280;59323;50.874;7.028;2023-03-14T03:44:48;98822.28;;;8.70;97.67
71504;BME280;59323;50.874;7.028;2023-03-14T03:47:15;98828.06;;;8.76;98.26
71504;BME280;59323;50.874;7.028;2023-03-14T03:49:40;98824.19;;;8.77;98.04
71504;BME280;59323;50.874;7.028;2023-03-14T03:52:05;98818.38;;;8.78;97.74
71504;BME280;59323;50.874;7.028;2023-03-14T03:54:31;98822.59;;;8.79;97.36
71504;BME280;59323;50.874;7.028;2023-03-14T03:56:56;98827.63;;;8.81;97.46
71504;BME280;59323;50.874;7.028;2023-03-14T03:59:21;98828.78;;;8.83;97.34
71504;BME280;59323;50.874;7.028;2023-03-14T04:01:47;98827.16;;;8.93;96.71
71504;BME280;59323;50.874;7.028;2023-03-14T04:04:12;98819.00;;;8.93;96.57
71504;BME280;59323;50.874;7.028;2023-03-14T04:06:38;98822.50;;;8.94;96.38
71504;BME280;59323;50.874;7.028;2023-03-14T04:09:03;98818.22;;;8.96;96.52
71504;BME280;59323;50.874;7.028;2023-03-14T04:11:29;98813.94;;;8.99;96.07
71504;BME280;59323;50.874;7.028;2023-03-14T04:13:54;98819.69;;;9.04;96.58
71504;BME280;59323;50.874;7.028;2023-03-14T04:16:23;98816.59;;;9.06;96.25
71504;BME280;59323;50.874;7.028;2023-03-14T04:18:48;98820.84;;;9.07;95.91
71504;BME280;59323;50.874;7.028;2023-03-14T04:21:14;98828.16;;;9.10;95.86
71504;BME280;59323;50.874;7.028;2023-03-14T04:23:40;98825.03;;;9.15;95.69
71504;BME280;59323;50.874;7.028;2023-03-14T04:26:05;98821.94;;;9.16;95.61
71504;BME280;59323;50.874;7.028;2023-03-14T04:28:31;98821.88;;;9.24;95.14
71504;BME280;59323;50.874;7.028;2023-03-14T04:30:57;98819.94;;;9.24;95.32
71504;BME280;59323;50.874;7.028;2023-03-14T04:33:22;98815.25;;;9.28;95.02
71504;BME280;59323;50.874;7.028;2023-03-14T04:35:48;98812.16;;;9.26;95.71
71504;BME280;59323;50.874;7.028;2023-03-14T04:38:18;98805.97;;;9.26;96.47
71504;BME280;59323;50.874;7.028;2023-03-14T04:40:44;98811.00;;;9.27;96.21
71504;BME280;59323;50.874;7.028;2023-03-14T04:43:10;98803.63;;;9.28;96.44
71504;BME280;59323;50.874;7.028;2023-03-14T04:45:36;98804.75;;;9.30;96.78
71504;BME280;59323;50.874;7.028;2023-03-14T04:48:01;98800.56;;;9.26;97.32
71504;BME280;59323;50.874;7.028;2023-03-14T04:50:26;98802.50;;;9.25;98.02
71504;BME280;59323;50.874;7.028;2023-03-14T04:52:52;98794.41;;;9.21;98.12
71504;BME280;59323;50.874;7.028;2023-03-14T04:55:17;98794.44;;;9.18;98.92
71504;BME280;59323;50.874;7.028;2023-03-14T04:57:43;98784.03;;;9.13;99.37
71504;BME280;59323;50.874;7.028;2023-03-14T05:00:09;98781.72;;;9.11;99.51
71504;BME280;59323;50.874;7.028;2023-03-14T05:02:35;98767.00;;;9.09;99.82
71504;BME280;59323;50.874;7.028;2023-03-14T05:05:00;98758.09;;;9.12;99.07
71504;BME280;59323;50.874;7.028;2023-03-14T05:07:26;98763.13;;;9.10;99.33
71504;BME280;59323;50.874;7.028;2023-03-14T05:09:51;98760.91;;;9.01;99.09
71504;BME280;59323;50.874;7.028;2023-03-14T05:12:18;98762.75;;;9.08;99.20
71504;BME280;59323;50.874;7.028;2023-03-14T05:14:44;98766.25;;;9.12;98.98
71504;BME280;59323;50.874;7.028;2023-03-14T05:17:11;98757.72;;;9.13;98.15
71504;BME280;59323;50.874;7.028;2023-03-14T05:19:39;98749.16;;;9.15;98.12
71504;BME280;59323;50.874;7.028;2023-03-14T05:22:05;98753.06;;;9.14;98.05
71504;BME280;59323;50.874;7.028;2023-03-14T05:24:30;98734.91;;;9.11;98.17
71504;BME280;59323;50.874;7.028;2023-03-14T05:26:55;98747.66;;;9.10;97.95
71504;BME280;59323;50.874;7.028;2023-03-14T05:29:21;98739.91;;;9.12;96.94
71504;BME280;59323;50.874;7.028;2023-03-14T05:31:46;98739.13;;;9.12;97.57
71504;BME280;59323;50.874;7.028;2023-03-14T05:34:11;98741.09;;;9.11;96.83
71504;BME280;59323;50.874;7.028;2023-03-14T05:36:39;98741.84;;;9.08;96.97
71504;BME280;59323;50.874;7.028;2023-03-14T05:39:04;98745.31;;;9.12;95.54
71504;BME280;59323;50.874;7.028;2023-03-14T05:41:33;98741.84;;;9.12;95.36
71504;BME280;59323;50.874;7.028;2023-03-14T05:43:58;98739.13;;;9.12;95.23
71504;BME280;59323;50.874;7.028;2023-03-14T05:46:23;98746.88;;;9.13;95.08
71504;BME280;59323;50.874;7.028;2023-03-14T05:48:49;98742.63;;;9.12;94.41
71504;BME280;59323;50.874;7.028;2023-03-14T05:51:14;98747.28;;;9.12;95.06
71504;BME280;59323;50.874;7.028;2023-03-14T05:53:40;98750.34;;;9.14;94.44
71504;BME280;59323;50.874;7.028;2023-03-14T05:56:05;98739.91;;;9.12;94.00
71504;BME280;59323;50.874;7.028;2023-03-14T05:58:31;98745.72;;;9.11;94.01
71504;BME280;59323;50.874;7.028;2023-03-14T06:00:56;98735.63;;;9.15;94.61
71504;BME280;59323;50.874;7.028;2023-03-14T06:03:21;98744.88;;;9.17;94.51
71504;BME280;59323;50.874;7.028;2023-03-14T06:05:50;98740.28;;;9.14;94.54
71504;BME280;59323;50.874;7.028;2023-03-14T06:08:15;98735.25;;;9.13;94.66
71504;BME280;59323;50.874;7.028;2023-03-14T06:10:41;98726.72;;;9.14;95.64
71504;BME280;59323;50.874;7.028;2023-03-14T06:13:06;98728.31;;;9.12;96.14
71504;BME280;59323;50.874;7.028;2023-03-14T06:15:31;98725.19;;;9.10;96.81
71504;BME280;59323;50.874;7.028;2023-03-14T06:17:58;98716.72;;;9.08;97.31
71504;BME280;59323;50.874;7.028;2023-03-14T06:20:23;98720.19;;;9.08;97.49
71504;BME280;59323;50.874;7.028;2023-03-14T06:22:48;98720.59;;;9.07;97.46
71504;BME280;59323;50.874;7.028;2023-03-14T06:25:14;98718.28;;;9.05;97.75
71504;BME280;59323;50.874;7.028;2023-03-14T06:27:39;98712.88;;;9.05;98.24
71504;BME280;59323;50.874;7.028;2023-03-14T06:30:05;98715.22;;;9.03;97.91
71504;BME280;59323;50.874;7.028;2023-03-14T06:32:34;98715.16;;;9.07;97.87
71504;BME280;59323;50.874;7.028;2023-03-14T06:34:59;98713.63;;;9.06;97.78
71504;BME280;59323;50.874;7.028;2023-03-14T06:37:27;98715.16;;;9.07;97.52
71504;BME280;59323;50.874;7.028;2023-03-14T06:39:53;98712.44;;;9.10;97.55
71504;BME280;59323;50.874;7.028;2023-03-14T06:42:18;98710.88;;;9.13;97.36
71504;BME280;59323;50.874;7.028;2023-03-14T06:44:44;98724.38;;;9.16;97.79
71504;BME280;59323;50.874;7.028;2023-03-14T06:47:09;98715.84;;;9.18;97.45
71504;BME280;59323;50.874;7.028;2023-03-14T06:49:34;98721.22;;;9.21;97.58
71504;BME280;59323;50.874;7.028;2023-03-14T06:52:00;98715.78;;;9.25;97.54
71504;BME280;59323;50.874;7.028;2023-03-14T06:54:25;98718.00;;;9.34;96.70
71504;BME280;59323;50.874;7.028;2023-03-14T06:56:50;98728.44;;;9.35;96.81
71504;BME280;59323;50.874;7.028;2023-03-14T06:59:16;98731.09;;;9.39;97.16
71504;BME280;59323;50.874;7.028;2023-03-14T07:01:41;98731.06;;;9.42;97.05
71504;BME280;59323;50.874;7.028;2023-03-14T07:04:06;98738.78;;;9.44;96.95
71504;BME280;59323;50.874;7.028;2023-03-14T07:06:33;98738.00;;;9.43;96.84
71504;BME280;59323;50.874;7.028;2023-03-14T07:08:59;98730.25;;;9.45;96.00
71504;BME280;59323;50.874;7.028;2023-03-14T07:11:25;98731.78;;;9.46;95.58
71504;BME280;59323;50.874;7.028;2023-03-14T07:13:51;98730.97;;;9.49;95.35
71504;BME280;59323;50.874;7.028;2023-03-14T07:16:16;98727.91;;;9.47;95.15
71504;BME280;59323;50.874;7.028;2023-03-14T07:18:42;98727.91;;;9.47;95.46
71504;BME280;59323;50.874;7.028;2023-03-14T07:21:08;98729.03;;;9.50;95.14
71504;BME280;59323;50.874;7.028;2023-03-14T07:23:34;98742.41;;;9.64;94.83
71504;BME280;59323;50.874;7.028;2023-03-14T07:26:00;98741.53;;;9.71;94.56
71504;BME280;59323;50.874;7.028;2023-03-14T07:28:26;98740.31;;;9.79;93.29
71504;BME280;59323;50.874;7.028;2023-03-14T07:30:52;98744.88;;;9.85;93.56
71504;BME280;59323;50.874;7.028;2023-03-14T07:33:18;98757.53;;;9.96;93.29
71504;BME280;59323;50.874;7.028;2023-03-14T07:35:43;98748.81;;;10.08;93.44
71504;BME280;59323;50.874;7.028;2023-03-14T07:38:08;98763.78;;;10.20;92.72
71504;BME280;59323;50.874;7.028;2023-03-14T07:40:34;98762.53;;;10.28;91.68
71504;BME280;59323;50.874;7.028;2023-03-14T07:42:59;98771.28;;;10.39;91.88
71504;BME280;59323;50.874;7.028;2023-03-14T07:45:24;98765.44;;;10.67;91.56
71504;BME280;59323;50.874;7.028;2023-03-14T07:47:50;98763.00;;;10.96;90.16
71504;BME280;59323;50.874;7.028;2023-03-14T07:50:15;98760.34;;;11.16;89.67
71504;BME280;59323;50.874;7.028;2023-03-14T07:52:41;98773.25;;;11.32;88.42
71504;BME280;59323;50.874;7.028;2023-03-14T07:55:06;98760.63;;;11.41;86.75
71504;BME280;59323;50.874;7.028;2023-03-14T07:57:32;98770.41;;;11.59;86.33
71504;BME280;59323;50.874;7.028;2023-03-14T07:59:57;98781.13;;;11.66;86.54
71504;BME280;59323;50.874;7.028;2023-03-14T08:02:22;98773.28;;;11.71;85.04
71504;BME280;59323;50.874;7.028;2023-03-14T08:04:49;98779.78;;;11.78;85.50
71504;BME280;59323;50.874;7.028;2023-03-14T08:07:14;98779.31;;;11.83;85.48
71504;BME280;59323;50.874;7.028;2023-03-14T08:09:40;98776.09;;;11.88;83.79
71504;BME280;59323;50.874;7.028;2023-03-14T08:12:06;98779.56;;;11.88;85.22
71504;BME280;59323;50.874;7.028;2023-03-14T08:14:32;98780.00;;;11.87;84.35
71504;BME280;59323;50.874;7.028;2023-03-14T08:16:57;98773.44;;;11.84;84.63
71504;BME280;59323;50.874;7.028;2023-03-14T08:19:23;98777.63;;;11.89;85.56
71504;BME280;59323;50.874;7.028;2023-03-14T08:21:48;98775.25;;;11.91;84.45
71504;BME280;59323;50.874;7.028;2023-03-14T08:24:13;98777.88;;;11.94;85.05
71504;BME280;59323;50.874;7.028;2023-03-14T08:26:38;98787.94;;;11.97;83.76
71504;BME280;59323;50.874;7.028;2023-03-14T08:29:04;98782.06;;;11.99;83.49
71504;BME280;59323;50.874;7.028;2023-03-14T08:31:30;98777.53;;;11.92;83.48
71504;BME280;59323;50.874;7.028;2023-03-14T08:33:58;98789.63;;;11.91;83.96
71504;BME280;59323;50.874;7.028;2023-03-14T08:36:24;98794.66;;;11.93;84.55
71504;BME280;59323;50.874;7.028;2023-03-14T08:38:49;98788.00;;;11.94;84.24
71504;BME280;59323;50.874;7.028;2023-03-14T08:41:14;98790.38;;;11.92;84.43
71504;BME280;59323;50.874;7.028;2023-03-14T08:43:40;98793.25;;;11.85;83.13
71504;BME280;59323;50.874;7.028;2023-03-14T08:46:05;98797.66;;;11.79;85.20
71504;BME280;59323;50.874;7.028;2023-03-14T08:48:30;98803.59;;;11.70;87.60
71504;BME280;59323;50.874;7.028;2023-03-14T08:51:01;98798.56;;;11.68;86.90
71504;BME280;59323;50.874;7.028;2023-03-14T08:53:28;98794.41;;;11.64;87.18
71504;BME280;59323;50.874;7.028;2023-03-14T08:55:54;98790.22;;;11.59;87.87
71504;BME280;59323;50.874;7.028;2023-03-14T08:58:19;98797.59;;;11.59;86.12
71504;BME280;59323;50.874;7.028;2023-03-14T09:00:44;98807.78;;;11.55;86.58
71504;BME280;59323;50.874;7.028;2023-03-14T09:03:10;98803.59;;;11.50;88.33
71504;BME280;59323;50.874;7.028;2023-03-14T09:05:35;98805.69;;;11.42;90.56
71504;BME280;59323;50.874;7.028;2023-03-14T09:08:01;98806.22;;;11.34;92.10
71504;BME280;59323;50.874;7.028;2023-03-14T09:10:26;98806.78;;;11.25;91.92
71504;BME280;59323;50.874;7.028;2023-03-14T09:12:51;98819.59;;;11.25;92.35
71504;BME280;59323;50.874;7.028;2023-03-14T09:15:17;98827.06;;;11.21;92.65
71504;BME280;59323;50.874;7.028;2023-03-14T09:17:43;98824.75;;;11.19;93.02
71504;BME280;59323;50.874;7.028;2023-03-14T09:20:09;98832.56;;;11.17;93.98
71504;BME280;59323;50.874;7.028;2023-03-14T09:22:35;98837.28;;;11.13;94.83
71504;BME280;59323;50.874;7.028;2023-03-14T09:25:02;98835.28;;;11.17;94.04
71504;BME280;59323;50.874;7.028;2023-03-14T09:27:28;98850.41;;;11.18;92.78
71504;BME280;59323;50.874;7.028;2023-03-14T09:29:53;98857.44;;;11.16;93.31
71504;BME280;59323;50.874;7.028;2023-03-14T09:32:18;98867.53;;;11.15;93.63
71504;BME280;59323;50.874;7.028;2023-03-14T09:34:44;98871.44;;;11.14;92.23
71504;BME280;59323;50.874;7.028;2023-03-14T09:37:09;98879.31;;;11.08;93.49
71504;BME280;59323;50.874;7.028;2023-03-14T09:39:35;98879.31;;;11.08;93.49
71504;BME280;59323;50.874;7.028;2023-03-14T09:42:04;98879.44;;;10.98;94.47
71504;BME280;59323;50.874;7.028;2023-03-14T09:44:33;98889.19;;;10.95;94.77
71504;BME280;59323;50.874;7.028;2023-03-14T09:47:03;98961.50;;;10.89;94.93
71504;BME280;59323;50.874;7.028;2023-03-14T09:49:36;98990.22;;;10.60;89.13
71504;BME280;59323;50.874;7.028;2023-03-14T09:52:11;98996.44;;;10.23;91.54
71504;BME280;59323;50.874;7.028;2023-03-14T09:54:47;99001.00;;;9.88;89.99
71504;BME280;59323;50.874;7.028;2023-03-14T09:57:17;99010.13;;;9.64;92.37
71504;BME280;59323;50.874;7.028;2023-03-14T09:59:45;99013.81;;;9.36;94.19
71504;BME280;59323;50.874;7.028;2023-03-14T10:02:19;99039.06;;;9.26;94.45
71504;BME280;59323;50.874;7.028;2023-03-14T10:04:46;99048.03;;;9.12;95.86
71504;BME280;59323;50.874;7.028;2023-03-14T10:07:18;99055.41;;;9.01;97.06
71504;BME280;59323;50.874;7.028;2023-03-14T10:09:46;99066.66;;;8.96;97.52
71504;BME280;59323;50.874;7.028;2023-03-14T10:12:12;99081.00;;;8.89;98.10
71504;BME280;59323;50.874;7.028;2023-03-14T10:14:45;99092.25;;;8.87;97.30
71504;BME280;59323;50.874;7.028;2023-03-14T10:17:12;99097.69;;;8.77;98.08
71504;BME280;59323;50.874;7.028;2023-03-14T10:22:21;99119.41;;;8.63;97.71
71504;BME280;59323;50.874;7.028;2023-03-14T10:24:56;99128.31;;;8.60;99.08
71504;BME280;59323;50.874;7.028;2023-03-14T10:27:32;99144.56;;;8.49;98.50
71504;BME280;59323;50.874;7.028;2023-03-14T10:30:00;99150.72;;;8.42;97.68
71504;BME280;59323;50.874;7.028;2023-03-14T10:32:35;99153.47;;;8.46;98.06
71504;BME280;59323;50.874;7.028;2023-03-14T10:35:08;99177.41;;;8.44;97.53
71504;BME280;59323;50.874;7.028;2023-03-14T10:38:00;99193.66;;;8.44;96.86
71504;BME280;59323;50.874;7.028;2023-03-14T10:40:34;99204.47;;;8.40;97.59
71504;BME280;59323;50.874;7.028;2023-03-14T10:43:05;99206.03;;;8.34;98.10
71504;BME280;59323;50.874;7.028;2023-03-14T10:45:32;99218.38;;;8.32;97.53
71504;BME280;59323;50.874;7.028;2023-03-14T10:48:18;99226.88;;;8.23;96.96
71504;BME280;59323;50.874;7.028;2023-03-14T10:51:06;99231.88;;;8.17;98.86
71504;BME280;59323;50.874;7.028;2023-03-14T10:56:18;99240.00;;;8.10;99.71
71504;BME280;59323;50.874;7.028;2023-03-14T10:58:45;99252.75;;;8.13;100.00
71504;BME280;59323;50.874;7.028;2023-03-14T11:01:22;99258.16;;;8.10;100.00
71504;BME280;59323;50.874;7.028;2023-03-14T11:04:08;99273.22;;;8.07;99.87
71504;BME280;59323;50.874;7.028;2023-03-14T11:06:48;99277.84;;;8.03;100.00
71504;BME280;59323;50.874;7.028;2023-03-14T11:09:23;99285.19;;;8.03;100.00
71504;BME280;59323;50.874;7.028;2023-03-14T11:11:51;99284.81;;;8.01;100.00
71504;BME280;59323;50.874;7.028;2023-03-14T11:14:23;99299.88;;;7.98;100.00
71504;BME280;59323;50.874;7.028;2023-03-14T11:17:03;99303.34;;;7.95;100.00
71504;BME280;59323;50.874;7.028;2023-03-14T11:22:36;99313.38;;;7.98;100.00
71504;BME280;59323;50.874;7.028;2023-03-14T11:30:17;99320.78;;;8.19;100.00
71504;BME280;59323;50.874;7.028;2023-03-14T11:32:53;99326.63;;;8.28;100.00
71504;BME280;59323;50.874;7.028;2023-03-14T11:35:30;99330.53;;;8.34;100.00
71504;BME280;59323;50.874;7.028;2023-03-14T11:38:43;99328.25;;;8.47;100.00
71504;BME280;59323;50.874;7.028;2023-03-14T11:40:49;99340.25;;;8.60;100.00
71504;BME280;59323;50.874;7.028;2023-03-14T11:43:37;99331.38;;;8.67;97.58
71504;BME280;59323;50.874;7.028;2023-03-14T11:46:43;99335.25;;;8.80;98.97
71504;BME280;59323;50.874;7.028;2023-03-14T11:51:47;99375.13;;;8.90;94.27
71504;BME280;59323;50.874;7.028;2023-03-14T11:54:22;99418.81;;;8.71;93.76
71504;BME280;59323;50.874;7.028;2023-03-14T11:56:54;99422.44;;;8.16;nan
71504;BME280;59323;50.874;7.028;2023-03-14T11:59:38;99434.59;;;7.78;89.67
71504;BME280;59323;50.874;7.028;2023-03-14T12:10:41;99452.78;;;7.30;96.72
71504;BME280;59323;50.874;7.028;2023-03-14T12:13:09;99453.63;;;7.38;96.63
71504;BME280;59323;50.874;7.028;2023-03-14T12:15:40;99465.25;;;7.45;97.61
71504;BME280;59323;50.874;7.028;2023-03-14T12:18:29;99471.88;;;7.51;98.21
71504;BME280;59323;50.874;7.028;2023-03-14T12:20:58;99485.47;;;7.62;99.25
71504;BME280;59323;50.874;7.028;2023-03-14T12:23:25;99493.16;;;7.60;98.86
71504;BME280;59323;50.874;7.028;2023-03-14T12:28:36;99512.94;;;7.68;97.77
71504;BME280;59323;50.874;7.028;2023-03-14T12:39:19;99560.78;;;7.63;96.66
71504;BME280;59323;50.874;7.028;2023-03-14T12:41:53;99582.03;;;7.65;96.09
71504;BME280;59323;50.874;7.028;2023-03-14T12:46:57;99575.78;;;7.57;93.43
71504;BME280;59323;50.874;7.028;2023-03-14T12:49:29;99600.13;;;7.57;92.12
71504;BME280;59323;50.874;7.028;2023-03-14T12:51:59;99606.59;;;7.49;88.93
71504;BME280;59323;50.874;7.028;2023-03-14T12:57:25;99613.06;;;7.38;87.99
71504;BME280;59323;50.874;7.028;2023-03-14T12:59:56;99627.31;;;7.35;90.17
71504;BME280;59323;50.874;7.028;2023-03-14T13:02:23;99626.91;;;7.32;89.16
71504;BME280;59323;50.874;7.028;2023-03-14T13:04:53;99637.28;;;7.30;89.12
71504;BME280;59323;50.874;7.028;2023-03-14T13:10:29;99654.69;;;7.33;89.73
71504;BME280;59323;50.874;7.028;2023-03-14T13:15:41;99671.25;;;7.28;90.72
71504;BME280;59323;50.874;7.028;2023-03-14T13:18:17;99671.19;;;7.24;89.70
71504;BME280;59323;50.874;7.028;2023-03-14T13:21:12;99689.28;;;7.20;91.99
71504;BME280;59323;50.874;7.028;2023-03-14T13:23:40;99700.50;;;7.22;91.35
71504;BME280;59323;50.874;7.028;2023-03-14T13:26:12;99703.16;;;7.19;91.26
71504;BME280;59323;50.874;7.028;2023-03-14T13:28:39;99714.38;;;7.21;93.10
71504;BME280;59323;50.874;7.028;2023-03-14T13:31:05;99721.34;;;7.22;93.92
71504;BME280;59323;50.874;7.028;2023-03-14T13:33:33;99723.69;;;7.23;92.94
71504;BME280;59323;50.874;7.028;2023-03-14T13:36:02;99729.91;;;7.27;93.23
71504;BME280;59323;50.874;7.028;2023-03-14T13:38:30;99733.06;;;7.33;92.29
71504;BME280;59323;50.874;7.028;2023-03-14T13:40:57;99738.88;;;7.35;91.41
71504;BME280;59323;50.874;7.028;2023-03-14T13:43:35;99746.63;;;7.37;92.23
71504;BME280;59323;50.874;7.028;2023-03-14T13:46:06;99751.69;;;7.42;90.63
71504;BME280;59323;50.874;7.028;2023-03-14T13:48:43;99755.59;;;7.44;89.61
71504;BME280;59323;50.874;7.028;2023-03-14T13:51:12;99764.06;;;7.43;87.23
71504;BME280;59323;50.874;7.028;2023-03-14T13:53:54;99773.66;;;7.37;87.74
71504;BME280;59323;50.874;7.028;2023-03-14T13:56:26;99788.25;;;7.32;89.12
71504;BME280;59323;50.874;7.028;2023-03-14T13:58:52;99802.13;;;7.30;86.76
71504;BME280;59323;50.874;7.028;2023-03-14T14:01:26;99813.25;;;7.25;89.31
71504;BME280;59323;50.874;7.028;2023-03-14T14:03:57;99809.34;;;7.23;87.82